createdAt,value
2023-05-24T00:00:36.315Z,1.38
2023-05-24T00:03:05.070Z,1.10
2023-05-24T00:05:33.394Z,1.73
2023-05-24T00:08:01.543Z,1.20
2023-05-24T00:10:29.692Z,1.10
2023-05-24T00:12:57.827Z,1.08
2023-05-24T00:15:26.148Z,1.00
2023-05-24T00:17:56.070Z,1.15
2023-05-24T00:20:24.279Z,1.20
2023-05-24T00:22:52.504Z,1.02
2023-05-24T00:25:20.624Z,1.25
2023-05-24T00:27:48.744Z,1.10
2023-05-24T00:30:16.870Z,1.15
2023-05-24T00:32:45.114Z,1.38
2023-05-24T00:35:14.849Z,0.95
2023-05-24T00:37:45.370Z,1.17
2023-05-24T00:40:14.151Z,1.00
2023-05-24T00:42:42.459Z,1.23
2023-05-24T00:45:11.562Z,0.90
2023-05-24T00:47:39.816Z,1.03
2023-05-24T00:50:11.865Z,1.13
2023-05-24T00:52:43.024Z,1.00
2023-05-24T00:55:12.161Z,0.82
2023-05-24T00:57:41.120Z,1.30
2023-05-24T01:00:11.320Z,1.05
2023-05-24T01:02:39.701Z,1.08
2023-05-24T01:05:09.120Z,0.90
2023-05-24T01:07:47.296Z,1.00
2023-05-24T01:10:25.561Z,0.80
2023-05-24T01:13:02.978Z,0.80
2023-05-24T01:15:42.761Z,1.20
2023-05-24T01:18:18.118Z,0.70
2023-05-24T01:20:48.698Z,0.90
2023-05-24T01:23:31.109Z,0.93
2023-05-24T01:26:24.706Z,1.00
2023-05-24T01:28:55.864Z,0.98
2023-05-24T01:31:24.298Z,1.00
2023-05-24T01:33:52.438Z,0.90
2023-05-24T01:36:21.098Z,1.00
2023-05-24T01:38:50.106Z,1.00
2023-05-24T01:41:28.193Z,0.90
2023-05-24T01:44:08.153Z,0.93
2023-05-24T01:49:14.085Z,0.70
2023-05-24T01:51:49.727Z,0.90
2023-05-24T01:54:22.580Z,1.08
2023-05-24T01:56:53.881Z,1.27
2023-05-24T01:59:25.228Z,1.02
2023-05-24T02:01:53.438Z,0.80
2023-05-24T02:04:21.595Z,1.10
2023-05-24T02:06:49.706Z,1.00
2023-05-24T02:09:17.948Z,1.00
2023-05-24T02:11:46.097Z,0.95
2023-05-24T02:14:14.484Z,1.13
2023-05-24T02:16:47.033Z,0.80
2023-05-24T02:19:15.629Z,0.88
2023-05-24T02:21:43.757Z,0.90
2023-05-24T02:24:12.635Z,0.60
2023-05-24T02:26:40.862Z,0.77
2023-05-24T02:29:09.015Z,0.70
2023-05-24T02:31:37.233Z,0.90
2023-05-24T02:34:07.751Z,1.10
2023-05-24T02:36:37.333Z,0.95
2023-05-24T02:39:06.237Z,0.85
2023-05-24T02:41:34.377Z,0.82
2023-05-24T02:44:02.500Z,1.05
2023-05-24T02:46:30.640Z,0.82
2023-05-24T02:48:58.826Z,0.80
2023-05-24T02:51:28.776Z,0.80
2023-05-24T02:53:56.896Z,1.17
2023-05-24T02:56:26.678Z,0.80
2023-05-24T02:58:55.686Z,0.80
2023-05-24T03:01:24.358Z,0.80
2023-05-24T03:03:52.694Z,0.85
2023-05-24T03:06:21.002Z,1.10
2023-05-24T03:08:51.116Z,0.77
2023-05-24T03:11:22.273Z,1.00
2023-05-24T03:13:50.709Z,0.90
2023-05-24T03:16:19.903Z,0.90
2023-05-24T03:18:50.607Z,0.60
2023-05-24T03:21:20.846Z,0.90
2023-05-24T03:23:50.783Z,0.80
2023-05-24T03:26:20.672Z,0.80
2023-05-24T03:31:20.892Z,0.88
2023-05-24T03:33:49.097Z,1.08
2023-05-24T03:36:17.203Z,0.80
2023-05-24T03:38:45.492Z,0.90
2023-05-24T03:41:14.995Z,1.02
2023-05-24T03:43:43.131Z,0.68
2023-05-24T03:46:11.280Z,0.98
2023-05-24T03:48:39.545Z,1.17
2023-05-24T03:51:09.262Z,0.95
2023-05-24T03:53:37.412Z,0.70
2023-05-24T03:56:05.633Z,2.20
2023-05-24T03:58:35.210Z,2.78
2023-05-24T04:01:03.551Z,1.90
2023-05-24T04:03:34.229Z,2.70
2023-05-24T04:06:02.625Z,3.08
2023-05-24T04:08:31.545Z,2.88
2023-05-24T04:10:59.708Z,2.90
2023-05-24T04:13:27.898Z,2.90
2023-05-24T04:15:57.428Z,2.60
2023-05-24T04:18:25.717Z,3.00
2023-05-24T04:20:53.951Z,3.13
2023-05-24T04:23:22.098Z,3.17
2023-05-24T04:25:50.228Z,2.97
2023-05-24T04:28:18.372Z,2.80
2023-05-24T04:30:46.486Z,3.63
2023-05-24T04:33:16.972Z,3.10
2023-05-24T04:35:45.673Z,2.97
2023-05-24T04:38:14.341Z,3.47
2023-05-24T04:40:42.740Z,2.75
2023-05-24T04:43:11.847Z,3.33
2023-05-24T04:45:39.988Z,3.28
2023-05-24T04:48:08.319Z,3.50
2023-05-24T04:50:37.939Z,2.90
2023-05-24T04:53:06.140Z,2.50
2023-05-24T04:55:34.261Z,3.17
2023-05-24T04:58:02.652Z,2.80
2023-05-24T05:00:30.852Z,3.33
2023-05-24T05:02:59.147Z,3.85
2023-05-24T05:05:27.433Z,3.42
2023-05-24T05:07:57.178Z,3.55
2023-05-24T05:10:26.371Z,2.85
2023-05-24T05:12:54.898Z,3.03
2023-05-24T05:15:24.653Z,3.15
2023-05-24T05:17:52.898Z,3.20
2023-05-24T05:20:21.359Z,2.30
2023-05-24T05:22:49.667Z,2.28
2023-05-24T05:25:19.270Z,2.47
2023-05-24T05:27:47.429Z,2.42
2023-05-24T05:30:16.020Z,2.50
2023-05-24T05:32:44.358Z,2.03
2023-05-24T05:35:12.516Z,2.33
2023-05-24T05:37:40.636Z,2.47
2023-05-24T05:40:09.534Z,2.20
2023-05-24T05:42:39.053Z,2.38
2023-05-24T05:45:08.538Z,2.05
2023-05-24T05:47:37.106Z,2.25
2023-05-24T05:50:05.722Z,2.15
2023-05-24T05:52:33.859Z,2.00
2023-05-24T05:55:02.143Z,2.08
2023-05-24T05:57:30.255Z,2.00
2023-05-24T05:59:59.785Z,2.63
2023-05-24T06:02:27.946Z,1.98
2023-05-24T06:04:56.291Z,1.95
2023-05-24T06:07:24.457Z,1.42
2023-05-24T06:09:52.585Z,1.88
2023-05-24T06:12:20.686Z,2.25
2023-05-24T06:14:52.503Z,2.03
2023-05-24T06:17:24.230Z,1.88
2023-05-24T06:19:53.775Z,1.92
2023-05-24T06:22:22.270Z,2.70
2023-05-24T06:24:50.606Z,2.72
2023-05-24T06:27:18.736Z,2.38
2023-05-24T06:29:46.905Z,2.25
2023-05-24T06:32:15.041Z,2.10
2023-05-24T06:34:44.563Z,1.80
2023-05-24T06:37:15.166Z,1.85
2023-05-24T06:39:43.429Z,2.30
2023-05-24T06:42:11.624Z,2.22
2023-05-24T06:44:39.714Z,2.33
2023-05-24T06:47:09.428Z,2.25
2023-05-24T06:49:38.100Z,2.25
2023-05-24T06:52:09.010Z,2.10
2023-05-24T06:54:37.296Z,1.90
2023-05-24T06:57:06.087Z,2.47
2023-05-24T06:59:34.198Z,1.83
2023-05-24T07:02:03.982Z,2.60
2023-05-24T07:04:32.710Z,2.03
2023-05-24T07:07:00.886Z,2.45
2023-05-24T07:09:30.391Z,2.25
2023-05-24T07:11:58.703Z,2.10
2023-05-24T07:14:27.437Z,1.98
2023-05-24T07:16:57.596Z,1.70
2023-05-24T07:19:29.180Z,5.53
2023-05-24T07:21:57.703Z,4.68
2023-05-24T07:24:26.111Z,3.88
2023-05-24T07:26:56.730Z,2.83
2023-05-24T07:29:26.007Z,3.20
2023-05-24T07:31:56.168Z,3.40
2023-05-24T07:34:27.589Z,3.53
2023-05-24T07:36:55.926Z,2.95
2023-05-24T07:39:25.284Z,3.72
2023-05-24T07:41:54.943Z,3.42
2023-05-24T07:44:23.909Z,3.15
2023-05-24T07:46:52.243Z,3.00
2023-05-24T07:49:20.593Z,2.95
2023-05-24T07:51:48.859Z,3.25
2023-05-24T07:54:17.095Z,3.58
2023-05-24T07:56:45.217Z,3.78
2023-05-24T07:59:14.710Z,3.03
2023-05-24T08:01:43.438Z,3.15
2023-05-24T08:04:11.935Z,2.47
2023-05-24T08:06:40.145Z,3.03
2023-05-24T08:09:08.892Z,2.85
2023-05-24T08:11:37.036Z,3.00
2023-05-24T08:14:06.355Z,2.70
2023-05-24T08:16:35.855Z,2.60
2023-05-24T08:19:03.951Z,2.53
2023-05-24T08:21:32.183Z,3.03
2023-05-24T08:24:00.590Z,2.80
2023-05-24T08:26:28.737Z,2.65
2023-05-24T08:28:56.856Z,2.45
2023-05-24T08:31:25.057Z,2.90
2023-05-24T08:33:56.164Z,2.67
2023-05-24T08:36:24.334Z,2.63
2023-05-24T08:38:52.438Z,2.58
2023-05-24T08:41:21.146Z,2.92
2023-05-24T08:43:49.519Z,2.35
2023-05-24T08:46:19.226Z,2.78
2023-05-24T08:51:17.904Z,3.15
2023-05-24T08:53:48.738Z,2.72
2023-05-24T08:56:19.092Z,2.63
2023-05-24T08:58:47.714Z,3.95
2023-05-24T09:01:17.788Z,4.00
2023-05-24T09:03:48.130Z,3.85
2023-05-24T09:06:19.715Z,3.63
2023-05-24T09:08:50.238Z,4.03
2023-05-24T09:11:19.618Z,3.75
2023-05-24T09:13:49.167Z,4.38
2023-05-24T09:16:17.777Z,3.90
2023-05-24T09:18:45.927Z,3.85
2023-05-24T09:21:14.845Z,3.88
2023-05-24T09:23:44.661Z,3.50
2023-05-24T09:28:41.822Z,3.13
2023-05-24T09:31:10.142Z,3.00
2023-05-24T09:33:39.874Z,2.88
2023-05-24T09:36:08.759Z,2.78
2023-05-24T09:38:37.253Z,3.03
2023-05-24T09:41:10.942Z,2.65
2023-05-24T09:43:49.566Z,3.20
2023-05-24T09:46:19.659Z,3.00
2023-05-24T09:48:58.593Z,2.90
2023-05-24T09:51:27.776Z,3.50
2023-05-24T09:53:59.118Z,2.63
2023-05-24T09:56:28.833Z,2.67
2023-05-24T10:01:27.031Z,2.90
2023-05-24T10:03:56.367Z,2.78
2023-05-24T10:06:25.132Z,3.03
2023-05-24T10:08:54.865Z,2.95
2023-05-24T10:13:52.289Z,2.88
2023-05-24T10:16:20.518Z,2.83
2023-05-24T10:18:48.650Z,2.65
2023-05-24T10:21:18.914Z,2.72
2023-05-24T10:23:53.671Z,2.13
2023-05-24T10:26:26.210Z,2.55
2023-05-24T10:29:01.183Z,2.70
2023-05-24T10:31:32.627Z,2.40
2023-05-24T10:34:07.928Z,2.45
2023-05-24T10:36:39.964Z,2.67
2023-05-24T10:39:12.349Z,2.85
2023-05-24T10:41:42.073Z,2.08
2023-05-24T10:44:15.035Z,2.42
2023-05-24T10:47:19.492Z,2.53
2023-05-24T10:49:52.772Z,2.17
2023-05-24T10:52:21.377Z,2.45
2023-05-24T10:55:05.556Z,1.98
2023-05-24T10:57:34.135Z,2.33
2023-05-24T11:03:04.217Z,4.20
2023-05-24T11:05:36.820Z,4.32
2023-05-24T11:08:07.932Z,4.60
2023-05-24T11:10:37.326Z,3.97
2023-05-24T11:13:08.608Z,3.97
2023-05-24T11:15:38.274Z,3.60
2023-05-24T11:20:45.043Z,3.63
2023-05-24T11:25:41.913Z,3.05
2023-05-24T11:28:12.016Z,3.20
2023-05-24T11:30:46.937Z,2.72
2023-05-24T11:33:20.079Z,3.17
2023-05-24T11:35:49.032Z,2.90
2023-05-24T11:38:17.814Z,3.10
2023-05-24T11:40:47.093Z,2.67
2023-05-24T11:43:16.894Z,2.90
2023-05-24T11:45:48.802Z,3.03
2023-05-24T11:48:17.437Z,3.35
2023-05-24T11:50:49.669Z,3.13
2023-05-24T11:53:20.099Z,3.08
2023-05-24T11:58:24.211Z,2.78
2023-05-24T12:00:53.979Z,3.38
2023-05-24T12:03:22.416Z,2.47
2023-05-24T12:05:51.379Z,3.03
2023-05-24T12:08:22.338Z,3.20
2023-05-24T12:10:52.753Z,3.08
2023-05-24T12:13:23.819Z,3.95
2023-05-24T12:15:56.585Z,2.70
2023-05-24T12:18:27.025Z,2.90
2023-05-24T12:20:55.359Z,2.90
2023-05-24T12:23:25.532Z,2.70
2023-05-24T12:25:59.385Z,2.40
2023-05-24T12:28:27.642Z,2.47
2023-05-24T12:30:57.281Z,2.88
2023-05-24T12:35:54.679Z,2.97
2023-05-24T12:38:25.684Z,2.67
2023-05-24T12:41:11.568Z,2.72
2023-05-24T12:43:41.805Z,2.65
2023-05-24T12:46:11.466Z,2.78
2023-05-24T12:48:40.256Z,2.05
2023-05-24T12:51:09.030Z,2.13
2023-05-24T12:53:37.210Z,2.67
2023-05-24T12:56:05.659Z,2.45
2023-05-24T12:58:33.794Z,2.17
2023-05-24T13:01:01.976Z,2.33
2023-05-24T13:03:31.496Z,2.30
2023-05-24T13:06:00.552Z,2.25
2023-05-24T13:08:30.123Z,2.30
2023-05-24T13:10:58.319Z,2.58
2023-05-24T13:13:26.519Z,2.47
2023-05-24T13:15:55.016Z,2.45
2023-05-24T13:18:23.584Z,2.30
2023-05-24T13:20:53.246Z,2.33
2023-05-24T13:23:21.489Z,2.60
2023-05-24T13:25:49.834Z,2.33
2023-05-24T13:28:18.009Z,2.05
2023-05-24T13:30:46.334Z,2.00
2023-05-24T13:33:14.699Z,2.38
2023-05-24T13:35:43.409Z,3.28
2023-05-24T13:38:13.363Z,3.07
2023-05-24T13:40:42.137Z,2.60
2023-05-24T13:43:10.808Z,2.37
2023-05-24T13:45:39.117Z,2.70
2023-05-24T13:48:07.372Z,2.83
2023-05-24T13:50:36.566Z,2.63
2023-05-24T13:53:05.706Z,2.03
2023-05-24T13:55:37.704Z,2.40
2023-05-24T13:58:06.388Z,2.20
2023-05-24T14:00:36.050Z,2.50
2023-05-24T14:03:06.010Z,3.00
2023-05-24T14:05:34.341Z,2.40
2023-05-24T14:08:06.531Z,2.40
2023-05-24T14:10:37.278Z,2.90
2023-05-24T14:13:28.990Z,2.65
2023-05-24T14:15:54.385Z,2.33
2023-05-24T14:18:22.592Z,2.05
2023-05-24T14:20:50.763Z,2.33
2023-05-24T14:23:18.947Z,2.00
2023-05-24T14:25:48.510Z,2.38
2023-05-24T14:30:44.747Z,2.22
2023-05-24T14:33:13.611Z,2.10
2023-05-24T14:35:42.474Z,2.40
2023-05-24T14:38:12.140Z,2.80
2023-05-24T14:40:40.998Z,2.20
2023-05-24T14:43:11.336Z,2.40
2023-05-24T14:45:41.275Z,2.13
2023-05-24T14:48:11.537Z,2.47
2023-05-24T14:50:40.928Z,2.30
2023-05-24T14:53:12.001Z,1.95
2023-05-24T14:55:42.475Z,2.08
2023-05-24T14:58:13.225Z,2.30
2023-05-24T15:00:42.577Z,2.85
2023-05-24T15:03:12.695Z,2.58
2023-05-24T15:05:42.119Z,2.42
2023-05-24T15:08:11.012Z,2.80
2023-05-24T15:10:40.296Z,2.45
2023-05-24T15:13:08.479Z,2.50
2023-05-24T15:15:38.105Z,2.83
2023-05-24T15:20:35.796Z,2.70
2023-05-24T15:23:04.568Z,2.67
2023-05-24T15:25:32.727Z,2.88
2023-05-24T15:28:01.308Z,2.80
2023-05-24T15:30:29.601Z,3.88
2023-05-24T15:32:59.139Z,3.50
2023-05-24T15:35:27.322Z,3.00
2023-05-24T15:37:55.491Z,3.15
2023-05-24T15:40:24.820Z,4.93
2023-05-24T15:42:53.973Z,4.75
2023-05-24T15:45:22.254Z,4.05
2023-05-24T15:47:50.541Z,4.55
2023-05-24T15:50:28.527Z,4.40
2023-05-24T15:53:00.455Z,4.43
2023-05-24T15:55:28.623Z,4.18
2023-05-24T15:57:58.794Z,5.00
2023-05-24T16:00:27.201Z,4.20
2023-05-24T16:02:56.986Z,4.07
2023-05-24T16:05:26.955Z,4.20
2023-05-24T16:07:55.211Z,4.53
2023-05-24T16:10:23.346Z,4.18
2023-05-24T16:12:51.485Z,4.30
2023-05-24T16:15:19.668Z,3.95
2023-05-24T16:17:47.843Z,5.13
2023-05-24T16:20:16.130Z,4.63
2023-05-24T16:22:50.014Z,4.07
2023-05-24T16:25:18.298Z,4.68
2023-05-24T16:27:46.487Z,4.78
2023-05-24T16:30:15.130Z,4.68
2023-05-24T16:32:45.213Z,4.75
2023-05-24T16:35:13.483Z,4.05
2023-05-24T16:37:41.620Z,4.15
2023-05-24T16:40:12.320Z,4.07
2023-05-24T16:42:40.595Z,3.92
2023-05-24T16:45:09.381Z,3.25
2023-05-24T16:47:37.642Z,3.60
2023-05-24T16:50:06.783Z,3.45
2023-05-24T16:52:35.051Z,3.08
2023-05-24T16:55:03.265Z,3.50
2023-05-24T16:57:32.757Z,3.25
2023-05-24T17:00:01.170Z,3.45
2023-05-24T17:02:29.335Z,3.63
2023-05-24T17:04:57.560Z,3.40
2023-05-24T17:07:25.838Z,3.22
2023-05-24T17:09:54.000Z,3.78
2023-05-24T17:12:22.348Z,3.45
2023-05-24T17:14:51.907Z,3.40
2023-05-24T17:17:20.117Z,3.35
2023-05-24T17:19:48.327Z,3.03
2023-05-24T17:22:16.532Z,3.22
2023-05-24T17:24:44.673Z,3.38
2023-05-24T17:27:13.176Z,3.50
2023-05-24T17:29:41.312Z,3.63
2023-05-24T17:32:10.949Z,3.75
2023-05-24T17:34:39.205Z,3.85
2023-05-24T17:37:07.388Z,4.88
2023-05-24T17:39:35.535Z,4.65
2023-05-24T17:42:03.711Z,3.95
2023-05-24T17:44:32.128Z,4.95
2023-05-24T17:47:02.069Z,3.70
2023-05-24T17:49:32.473Z,3.42
2023-05-24T17:52:01.261Z,3.83
2023-05-24T17:54:29.710Z,2.85
2023-05-24T17:56:57.908Z,3.50
2023-05-24T17:59:26.135Z,4.00
2023-05-24T18:01:54.379Z,3.83
2023-05-24T18:04:22.652Z,3.58
2023-05-24T18:06:52.239Z,3.50
2023-05-24T18:09:20.461Z,2.95
2023-05-24T18:11:49.637Z,3.53
2023-05-24T18:14:18.375Z,4.65
2023-05-24T18:16:46.674Z,4.05
2023-05-24T18:19:14.896Z,4.60
2023-05-24T18:21:43.004Z,4.38
2023-05-24T18:24:12.571Z,3.85
2023-05-24T18:26:40.704Z,3.25
2023-05-24T18:29:08.868Z,3.80
2023-05-24T18:31:37.064Z,3.60
2023-05-24T18:34:05.271Z,3.58
2023-05-24T18:36:34.252Z,3.65
2023-05-24T18:39:03.183Z,3.00
2023-05-24T18:41:32.762Z,3.97
2023-05-24T18:44:00.996Z,2.92
2023-05-24T18:46:29.663Z,3.50
2023-05-24T18:49:00.368Z,3.22
2023-05-24T18:51:28.530Z,3.38
2023-05-24T18:53:56.856Z,3.78
2023-05-24T18:56:25.000Z,3.65
2023-05-24T18:58:58.572Z,2.88
2023-05-24T19:01:28.235Z,4.40
2023-05-24T19:03:56.499Z,4.05
2023-05-24T19:06:24.966Z,4.85
2023-05-24T19:08:53.109Z,4.95
2023-05-24T19:11:21.280Z,4.70
2023-05-24T19:13:49.428Z,4.88
2023-05-24T19:16:19.040Z,4.40
2023-05-24T19:18:47.273Z,4.40
2023-05-24T19:21:15.549Z,3.58
2023-05-24T19:23:43.696Z,3.47
2023-05-24T19:26:12.014Z,3.85
2023-05-24T19:28:42.216Z,3.42
2023-05-24T19:31:10.398Z,3.78
2023-05-24T19:33:52.018Z,4.07
2023-05-24T19:36:27.221Z,3.20
2023-05-24T19:38:55.791Z,3.70
2023-05-24T19:41:23.932Z,3.28
2023-05-24T19:43:53.531Z,3.53
2023-05-24T19:46:24.558Z,3.50
2023-05-24T19:48:54.322Z,3.22
2023-05-24T19:51:22.593Z,2.95
2023-05-24T19:53:51.264Z,3.40
2023-05-24T19:56:20.787Z,3.20
2023-05-24T19:58:50.008Z,3.40
2023-05-24T20:01:18.278Z,2.93
2023-05-24T20:03:48.503Z,3.00
2023-05-24T20:06:18.640Z,3.28
2023-05-24T20:11:15.247Z,3.30
2023-05-24T20:13:43.394Z,3.25
2023-05-24T20:16:11.612Z,3.10
2023-05-24T20:18:39.771Z,3.30
2023-05-24T20:21:07.978Z,3.50
2023-05-24T20:23:37.548Z,2.85
2023-05-24T20:26:05.938Z,3.10
2023-05-24T20:28:34.110Z,2.85
2023-05-24T20:31:02.305Z,2.80
2023-05-24T20:33:30.441Z,2.85
2023-05-24T20:35:59.448Z,3.03
2023-05-24T20:38:27.967Z,2.60
2023-05-24T20:40:57.503Z,3.58
2023-05-24T20:43:25.666Z,2.88
2023-05-24T20:45:53.855Z,2.80
2023-05-24T20:48:23.329Z,2.78
2023-05-24T20:50:51.447Z,2.50
2023-05-24T20:53:20.001Z,2.92
2023-05-24T20:55:48.150Z,2.78
2023-05-24T20:58:18.005Z,2.58
2023-05-24T21:03:14.587Z,2.90
2023-05-24T21:05:43.178Z,2.40
2023-05-24T21:08:11.534Z,3.05
2023-05-24T21:10:39.871Z,2.88
2023-05-24T21:13:08.117Z,2.90
2023-05-24T21:15:37.664Z,3.03
2023-05-24T21:18:06.053Z,2.67
2023-05-24T21:20:34.394Z,2.88
2023-05-24T21:23:02.678Z,2.65
2023-05-24T21:25:30.890Z,3.05
2023-05-24T21:27:59.048Z,2.10
2023-05-24T21:30:27.235Z,2.47
2023-05-24T21:32:56.895Z,2.53
2023-05-24T21:35:25.088Z,3.10
2023-05-24T21:37:53.586Z,4.72
2023-05-24T21:40:21.888Z,3.67
2023-05-24T21:42:50.005Z,2.90
2023-05-24T21:45:18.413Z,3.08
2023-05-24T21:47:46.564Z,2.83
2023-05-24T21:50:16.128Z,3.00
2023-05-24T21:52:44.330Z,2.95
2023-05-24T21:55:12.473Z,2.65
2023-05-24T21:57:40.600Z,2.70
2023-05-24T22:00:10.087Z,2.97
2023-05-24T22:02:38.299Z,3.20
2023-05-24T22:05:26.816Z,2.65
2023-05-24T22:07:57.184Z,2.72
2023-05-24T22:10:25.371Z,2.88
2023-05-24T22:12:53.497Z,2.63
2023-05-24T22:15:21.575Z,2.60
2023-05-24T22:17:50.408Z,2.70
2023-05-24T22:20:19.272Z,2.45
2023-05-24T22:22:53.701Z,3.88
2023-05-24T22:25:23.237Z,3.42
2023-05-24T22:27:52.820Z,3.75
2023-05-24T22:30:21.013Z,3.25
2023-05-24T22:32:49.179Z,3.33
2023-05-24T22:35:17.558Z,2.85
2023-05-24T22:37:45.684Z,2.80
2023-05-24T22:40:14.587Z,3.00
2023-05-24T22:42:44.082Z,2.92
2023-05-24T22:45:13.938Z,2.60
2023-05-24T22:50:10.789Z,2.42
2023-05-24T22:52:42.488Z,2.75
2023-05-24T22:55:11.159Z,2.65
2023-05-24T22:57:39.733Z,2.55
2023-05-24T23:00:11.682Z,2.65
2023-05-24T23:02:39.835Z,2.60
2023-05-24T23:05:09.648Z,2.70
2023-05-24T23:10:08.161Z,2.40
2023-05-24T23:12:36.758Z,2.70
2023-05-24T23:15:05.127Z,2.55
2023-05-24T23:17:34.617Z,2.50
2023-05-24T23:20:02.995Z,2.72
2023-05-24T23:22:31.147Z,2.25
2023-05-24T23:24:59.256Z,2.42
2023-05-24T23:27:27.345Z,2.58
2023-05-24T23:29:55.456Z,2.47
2023-05-24T23:32:23.659Z,2.47
2023-05-24T23:34:53.211Z,2.40
2023-05-24T23:37:21.399Z,2.78
2023-05-24T23:39:49.483Z,2.40
2023-05-24T23:42:17.622Z,2.42
2023-05-24T23:44:45.730Z,2.30
2023-05-24T23:47:13.862Z,2.10
2023-05-24T23:49:41.917Z,2.28
2023-05-24T23:52:12.406Z,2.50
2023-05-24T23:54:40.633Z,2.50
2023-05-24T23:57:10.006Z,2.58
2023-05-24T23:59:38.194Z,2.28
